Time;durP1;ratioP1;P1;durP2;ratioP2;P2;SDS_P1;SDS_P2;PMS_P1;PMS_P2;Temp;Humidity;BMP_temperature;BMP_pressure;BME280_temperature;BME280_humidity;BME280_pressure;Samples;Min_cycle;Max_cycle;Signal;HPM_P1;HPM_P2
2023/03/09 00:01:21;;;;;;;12.57;7.93;;;2.40;99.90;;;;;;4993139;28;20219;-79
2023/03/09 00:03:49;;;;;;;15.43;9.80;;;2.40;99.90;;;;;;4992987;28;20274;-78
2023/03/09 00:06:17;;;;;;;12.37;8.37;;;2.40;99.90;;;;;;4992426;28;20387;-79
2023/03/09 00:08:44;;;;;;;13.47;8.30;;;2.40;99.90;;;;;;4992903;28;20641;-78
2023/03/09 00:11:11;;;;;;;13.93;8.70;;;2.40;99.90;;;;;;4993394;28;20247;-77
2023/03/09 00:13:38;;;;;;;13.00;8.93;;;2.40;99.90;;;;;;4992756;28;20498;-79
2023/03/09 00:16:10;;;;;;;12.93;9.43;;;2.40;99.90;;;;;;4993224;28;20286;-78
2023/03/09 00:18:37;;;;;;;14.37;9.27;;;2.40;99.90;;;;;;4992809;28;20719;-80
2023/03/09 00:21:04;;;;;;;14.60;9.33;;;2.40;99.90;;;;;;4992014;28;20306;-79
2023/03/09 00:23:33;;;;;;;16.00;8.80;;;2.50;99.90;;;;;;4992430;28;20231;-78
2023/03/09 00:26:04;;;;;;;13.70;9.13;;;2.40;99.90;;;;;;4992651;28;20207;-79
2023/03/09 00:28:31;;;;;;;13.97;9.97;;;2.40;99.90;;;;;;4992369;28;20275;-77
2023/03/09 00:31:02;;;;;;;15.47;9.87;;;2.40;99.90;;;;;;5003425;28;20558;-78
2023/03/09 00:33:29;;;;;;;16.47;10.37;;;2.40;99.90;;;;;;5011388;28;20227;-78
2023/03/09 00:35:56;;;;;;;14.53;10.20;;;2.40;99.90;;;;;;4995428;28;20212;-78
2023/03/09 00:38:23;;;;;;;16.37;9.53;;;2.30;99.90;;;;;;4992461;28;20668;-78
2023/03/09 00:40:52;;;;;;;15.93;9.80;;;2.30;99.90;;;;;;4992011;28;20286;-79
2023/03/09 00:43:19;;;;;;;16.40;9.73;;;2.30;99.90;;;;;;4992295;28;20311;-79
2023/03/09 00:45:46;;;;;;;14.30;8.90;;;2.30;99.90;;;;;;4992306;28;20595;-79
2023/03/09 00:48:13;;;;;;;11.67;8.23;;;2.30;99.90;;;;;;4992232;28;20290;-79
2023/03/09 00:50:40;;;;;;;12.40;8.13;;;2.40;99.90;;;;;;4992253;28;20200;-79
2023/03/09 00:53:07;;;;;;;11.70;8.60;;;2.30;99.90;;;;;;4992442;28;20880;-78
2023/03/09 00:55:35;;;;;;;12.17;8.13;;;2.30;99.90;;;;;;4991757;28;20196;-78
2023/03/09 00:58:03;;;;;;;12.67;7.87;;;2.40;99.90;;;;;;4992328;28;20192;-78
2023/03/09 01:00:33;;;;;;;13.77;7.77;;;2.30;99.90;;;;;;4992524;28;20288;-78
2023/03/09 01:03:00;;;;;;;12.13;7.03;;;2.30;99.90;;;;;;4991304;28;20240;-79
2023/03/09 01:05:27;;;;;;;10.63;6.83;;;2.40;99.90;;;;;;4992294;28;20204;-78
2023/03/09 01:07:54;;;;;;;10.17;6.97;;;2.40;99.90;;;;;;4992424;28;20609;-78
2023/03/09 01:10:21;;;;;;;8.53;6.47;;;2.30;99.90;;;;;;4992650;28;20893;-78
2023/03/09 01:12:48;;;;;;;9.07;6.30;;;2.30;99.90;;;;;;5011732;28;20215;-79
2023/03/09 01:15:16;;;;;;;9.53;6.67;;;2.30;99.90;;;;;;5011560;28;20253;-79
2023/03/09 01:17:43;;;;;;;10.17;6.53;;;2.40;99.90;;;;;;5011130;28;20246;-79
2023/03/09 01:20:11;;;;;;;9.03;6.37;;;2.40;99.90;;;;;;5001637;28;20208;-78
2023/03/09 01:22:38;;;;;;;9.13;6.33;;;2.40;99.90;;;;;;4990910;28;20517;-78
2023/03/09 01:25:06;;;;;;;8.27;6.07;;;2.30;99.90;;;;;;4992240;28;20231;-78
2023/03/09 01:27:33;;;;;;;7.77;5.57;;;2.30;99.90;;;;;;4991919;28;20501;-78
2023/03/09 01:30:00;;;;;;;8.07;5.67;;;2.30;99.90;;;;;;4991709;28;20689;-78
2023/03/09 01:32:29;;;;;;;7.87;6.20;;;2.30;99.90;;;;;;4992013;28;20266;-78
2023/03/09 01:34:56;;;;;;;7.57;5.57;;;2.30;99.90;;;;;;4992286;28;20196;-78
2023/03/09 01:37:23;;;;;;;7.70;5.97;;;2.30;99.90;;;;;;4990841;28;20271;-78
2023/03/09 01:39:49;;;;;;;9.43;5.80;;;2.30;99.90;;;;;;4991959;28;20279;-79
2023/03/09 01:42:17;;;;;;;7.40;5.33;;;2.30;99.90;;;;;;4996961;28;20220;-79
2023/03/09 01:44:43;;;;;;;7.20;5.33;;;2.30;99.90;;;;;;5011129;28;20216;-79
2023/03/09 01:47:10;;;;;;;8.20;5.40;;;2.30;99.90;;;;;;5007005;28;20207;-79
2023/03/09 01:49:43;;;;;;;6.50;4.87;;;2.30;99.90;;;;;;4991576;28;20232;-79
2023/03/09 01:52:15;;;;;;;7.47;5.40;;;2.30;99.90;;;;;;4991112;28;20200;-79
2023/03/09 01:54:47;;;;;;;9.73;6.00;;;2.30;99.90;;;;;;4995477;28;20643;-80
2023/03/09 01:57:21;;;;;;;9.53;5.13;;;2.30;99.90;;;;;;4995008;28;20291;-79
2023/03/09 01:59:51;;;;;;;7.63;5.20;;;2.30;99.90;;;;;;4994931;28;20665;-79
2023/03/09 02:02:19;;;;;;;11.63;5.93;;;2.30;99.90;;;;;;4994946;28;20223;-79
2023/03/09 02:04:51;;;;;;;7.13;5.63;;;2.30;99.90;;;;;;4995173;28;20296;-80
2023/03/09 02:07:20;;;;;;;8.00;6.13;;;2.30;99.90;;;;;;4994981;28;20678;-79
2023/03/09 02:09:52;;;;;;;9.17;6.90;;;2.40;99.90;;;;;;4994455;28;20216;-80
2023/03/09 02:12:21;;;;;;;8.57;5.97;;;2.40;99.90;;;;;;4994029;28;20295;-79
2023/03/09 02:14:48;;;;;;;9.70;6.37;;;2.30;99.90;;;;;;4995307;28;20223;-79
2023/03/09 02:17:16;;;;;;;10.20;5.93;;;2.30;99.90;;;;;;4995254;28;20228;-79
2023/03/09 02:20:14;;;;;;;11.67;7.40;;;2.30;99.90;;;;;;4994475;28;20750;-80
2023/03/09 02:22:43;;;;;;;11.10;6.57;;;2.30;99.90;;;;;;4994304;28;20236;-80
2023/03/09 02:25:20;;;;;;;9.00;6.17;;;2.30;99.90;;;;;;4994923;28;20295;-79
2023/03/09 02:27:49;;;;;;;7.87;6.03;;;2.30;99.90;;;;;;4994493;28;20204;-79
2023/03/09 02:30:16;;;;;;;9.13;6.80;;;2.40;99.90;;;;;;4995010;28;20318;-79
2023/03/09 02:32:43;;;;;;;8.80;6.77;;;2.40;99.90;;;;;;4994415;28;20206;-79
2023/03/09 02:35:11;;;;;;;9.37;6.80;;;2.30;99.90;;;;;;4997855;28;20282;-79
2023/03/09 02:37:40;;;;;;;8.17;6.43;;;2.30;99.90;;;;;;5013985;28;20666;-79
2023/03/09 02:40:13;;;;;;;7.97;6.03;;;2.40;99.90;;;;;;5013780;28;20231;-78
2023/03/09 02:42:41;;;;;;;8.23;6.47;;;2.40;99.90;;;;;;5000995;28;20318;-79
2023/03/09 02:45:12;;;;;;;9.00;6.40;;;2.40;99.90;;;;;;4994555;28;20289;-79
2023/03/09 02:47:39;;;;;;;9.83;6.30;;;2.40;99.90;;;;;;5000619;28;20278;-79
2023/03/09 02:50:07;;;;;;;9.33;6.93;;;2.40;99.90;;;;;;5013963;28;20628;-80
2023/03/09 02:52:34;;;;;;;10.07;6.93;;;2.40;99.90;;;;;;5010381;28;20255;-79
2023/03/09 02:55:00;;;;;;;8.73;6.50;;;2.40;99.90;;;;;;4993967;28;20274;-79
2023/03/09 02:57:27;;;;;;;9.57;6.80;;;2.40;99.90;;;;;;4994383;28;20287;-79
2023/03/09 02:59:54;;;;;;;10.33;6.67;;;2.40;99.90;;;;;;4994109;28;20214;-80
2023/03/09 03:02:23;;;;;;;9.80;7.40;;;2.40;99.90;;;;;;4993578;28;20251;-80
2023/03/09 03:04:49;;;;;;;9.97;7.13;;;2.50;99.90;;;;;;4993080;28;20239;-79
2023/03/09 03:07:20;;;;;;;11.97;8.23;;;2.50;99.90;;;;;;4999591;28;20267;-79
2023/03/09 03:09:46;;;;;;;9.63;7.17;;;2.40;99.90;;;;;;4993785;28;20499;-79
2023/03/09 03:12:13;;;;;;;10.30;7.63;;;2.40;99.90;;;;;;4994662;28;20228;-80
2023/03/09 03:14:40;;;;;;;11.50;7.97;;;2.40;99.90;;;;;;4993847;28;20210;-79
2023/03/09 03:17:07;;;;;;;11.00;7.37;;;2.40;99.90;;;;;;4993581;28;20300;-79
2023/03/09 03:19:36;;;;;;;11.23;7.17;;;2.40;99.90;;;;;;4994077;28;20301;-79
2023/03/09 03:22:03;;;;;;;10.70;7.00;;;2.40;99.90;;;;;;4993963;28;20232;-79
2023/03/09 03:24:30;;;;;;;10.63;7.33;;;2.40;99.90;;;;;;4993006;28;20207;-79
2023/03/09 03:26:57;;;;;;;10.20;7.13;;;2.40;99.90;;;;;;4994045;28;20235;-79
2023/03/09 03:29:25;;;;;;;11.27;7.07;;;2.40;99.90;;;;;;4993114;28;20289;-79
2023/03/09 03:31:52;;;;;;;9.87;7.43;;;2.40;99.90;;;;;;4993398;28;20289;-79
2023/03/09 03:34:19;;;;;;;11.90;7.87;;;2.40;99.90;;;;;;4993364;28;20545;-79
2023/03/09 03:36:47;;;;;;;12.50;7.97;;;2.40;99.90;;;;;;4992403;28;20195;-80
2023/03/09 03:39:14;;;;;;;11.27;7.43;;;2.20;99.90;;;;;;4993610;28;20195;-80
2023/03/09 03:41:41;;;;;;;12.07;8.77;;;2.20;99.90;;;;;;4993509;28;20210;-79
2023/03/09 03:44:08;;;;;;;14.37;8.17;;;2.20;99.90;;;;;;4992778;28;20254;-78
2023/03/09 03:46:35;;;;;;;11.50;7.90;;;2.10;99.90;;;;;;4993301;28;20203;-79
2023/03/09 03:49:01;;;;;;;11.10;7.97;;;2.10;99.90;;;;;;4993244;28;20283;-78
2023/03/09 03:51:28;;;;;;;12.87;8.53;;;2.10;99.90;;;;;;4992408;28;20235;-79
2023/03/09 03:53:57;;;;;;;11.37;8.20;;;2.10;99.90;;;;;;4993382;28;20228;-79
2023/03/09 03:56:24;;;;;;;12.33;9.17;;;2.10;99.90;;;;;;4993147;28;20295;-79
2023/03/09 03:58:50;;;;;;;14.67;8.13;;;2.10;99.90;;;;;;4993407;28;20218;-79
2023/03/09 04:01:18;;;;;;;12.30;8.23;;;2.10;99.90;;;;;;5012787;28;20618;-79
2023/03/09 04:03:44;;;;;;;14.73;7.90;;;2.00;99.90;;;;;;5012968;28;20251;-79
2023/03/09 04:06:12;;;;;;;14.10;7.90;;;2.00;99.90;;;;;;4994395;28;20511;-79
2023/03/09 04:08:39;;;;;;;12.97;8.60;;;2.00;99.90;;;;;;4993068;28;20204;-78
2023/03/09 04:11:09;;;;;;;10.70;7.60;;;2.10;99.90;;;;;;4992969;28;20192;-79
2023/03/09 04:13:36;;;;;;;11.63;7.13;;;2.00;99.90;;;;;;4992342;28;20275;-79
2023/03/09 04:16:03;;;;;;;13.73;8.47;;;2.00;99.90;;;;;;4992625;28;20588;-78
2023/03/09 04:18:30;;;;;;;10.93;7.60;;;2.00;99.90;;;;;;4991610;28;20212;-78
2023/03/09 04:20:57;;;;;;;11.23;7.37;;;2.00;99.90;;;;;;4993188;28;20282;-81
2023/03/09 04:23:24;;;;;;;10.07;7.90;;;2.10;99.90;;;;;;4992578;28;20311;-79
2023/03/09 04:25:55;;;;;;;10.80;7.67;;;2.10;99.90;;;;;;4992505;28;20204;-80
2023/03/09 04:28:24;;;;;;;9.43;7.33;;;2.00;99.90;;;;;;4992689;28;20498;-79
2023/03/09 04:30:50;;;;;;;12.50;8.13;;;2.00;99.90;;;;;;4992681;28;20235;-79
2023/03/09 04:33:17;;;;;;;12.20;8.07;;;2.10;99.90;;;;;;4992078;28;20203;-79
2023/03/09 04:35:44;;;;;;;11.07;8.10;;;2.10;99.90;;;;;;4992660;28;20279;-79
2023/03/09 04:38:11;;;;;;;12.30;7.80;;;2.10;99.90;;;;;;4992870;28;20231;-79
2023/03/09 04:40:39;;;;;;;11.63;8.03;;;2.10;99.90;;;;;;4991990;28;20279;-79
2023/03/09 04:43:06;;;;;;;12.37;8.20;;;2.10;99.90;;;;;;4991863;28;20326;-79
2023/03/09 04:45:34;;;;;;;13.00;8.77;;;2.00;99.90;;;;;;4992785;28;20208;-79
2023/03/09 04:48:01;;;;;;;11.83;7.97;;;2.00;99.90;;;;;;4992019;28;20203;-79
2023/03/09 04:50:28;;;;;;;12.60;8.37;;;2.00;99.90;;;;;;4992564;28;20266;-79
2023/03/09 04:52:57;;;;;;;11.93;8.63;;;2.00;99.90;;;;;;4992050;28;20513;-79
2023/03/09 04:55:24;;;;;;;11.30;7.93;;;2.00;99.90;;;;;;4991852;28;20292;-79
2023/03/09 04:57:51;;;;;;;12.87;9.00;;;2.00;99.90;;;;;;4992367;28;20521;-79
2023/03/09 05:00:19;;;;;;;13.63;9.00;;;2.00;99.90;;;;;;4993048;28;20298;-78
2023/03/09 05:02:47;;;;;;;12.37;8.10;;;1.90;99.90;;;;;;4991639;28;20518;-79
2023/03/09 05:05:16;;;;;;;11.50;8.37;;;1.90;99.90;;;;;;4992479;28;20199;-79
2023/03/09 05:07:43;;;;;;;14.33;9.53;;;1.90;99.90;;;;;;4991376;28;20199;-78
2023/03/09 05:10:11;;;;;;;13.77;10.07;;;1.80;99.90;;;;;;4992253;28;20504;-79
2023/03/09 05:12:38;;;;;;;16.73;10.07;;;1.80;99.90;;;;;;4992432;28;20204;-79
2023/03/09 05:15:06;;;;;;;14.33;9.63;;;1.80;99.90;;;;;;4992428;28;20287;-79
2023/03/09 05:17:33;;;;;;;16.77;9.83;;;1.80;99.90;;;;;;4992562;28;20197;-79
2023/03/09 05:20:06;;;;;;;13.33;9.90;;;1.80;99.90;;;;;;4992018;28;20212;-79
2023/03/09 05:22:34;;;;;;;15.47;10.30;;;1.80;99.90;;;;;;4991298;28;20228;-79
2023/03/09 05:25:01;;;;;;;15.73;10.00;;;1.80;99.90;;;;;;4992607;28;20530;-79
2023/03/09 05:27:28;;;;;;;14.33;10.37;;;1.70;99.90;;;;;;4992654;28;20192;-79
2023/03/09 05:29:54;;;;;;;16.70;10.27;;;1.70;99.90;;;;;;4995182;28;20874;-79
2023/03/09 05:32:21;;;;;;;15.17;10.07;;;1.70;99.90;;;;;;4996274;28;20287;-79
2023/03/09 05:34:48;;;;;;;15.97;10.00;;;1.70;99.90;;;;;;4995617;28;20208;-78
2023/03/09 05:37:16;;;;;;;17.57;11.00;;;1.70;99.90;;;;;;4995111;28;20282;-79
2023/03/09 05:39:43;;;;;;;19.83;12.07;;;1.70;99.90;;;;;;4996008;28;20235;-77
2023/03/09 05:42:11;;;;;;;17.43;10.97;;;1.70;99.90;;;;;;4995605;28;20207;-77
2023/03/09 05:44:38;;;;;;;17.57;11.20;;;1.70;99.90;;;;;;4995073;28;20232;-77
2023/03/09 05:47:05;;;;;;;17.70;11.93;;;1.70;99.90;;;;;;4995894;28;20200;-78
2023/03/09 05:49:32;;;;;;;19.00;11.83;;;1.70;99.90;;;;;;5011271;28;20318;-78
2023/03/09 05:51:59;;;;;;;18.77;11.70;;;1.80;99.90;;;;;;5012302;28;20214;-78
2023/03/09 05:54:28;;;;;;;19.20;12.73;;;1.80;99.90;;;;;;4995618;28;20188;-78
2023/03/09 05:56:55;;;;;;;17.60;11.87;;;1.80;99.90;;;;;;4994932;28;20669;-77
2023/03/09 05:59:22;;;;;;;20.57;12.70;;;1.80;99.90;;;;;;4995602;28;20235;-78
2023/03/09 06:01:49;;;;;;;21.30;12.17;;;1.80;99.90;;;;;;4995510;28;20196;-77
2023/03/09 06:04:16;;;;;;;22.53;13.23;;;1.80;99.90;;;;;;4994858;28;20807;-78
2023/03/09 06:06:43;;;;;;;18.87;12.57;;;1.80;99.90;;;;;;4995218;28;20294;-78
2023/03/09 06:09:09;;;;;;;20.50;13.03;;;1.90;99.90;;;;;;4995189;28;20204;-78
2023/03/09 06:11:38;;;;;;;21.40;13.43;;;1.90;99.90;;;;;;4994521;28;20203;-78
2023/03/09 06:14:05;;;;;;;19.93;13.43;;;2.00;99.90;;;;;;4995072;28;20208;-79
2023/03/09 06:16:32;;;;;;;21.67;13.27;;;2.00;99.90;;;;;;4995052;28;20232;-77
2023/03/09 06:18:59;;;;;;;20.00;12.73;;;2.00;99.90;;;;;;4994472;28;20212;-78
2023/03/09 06:21:26;;;;;;;19.23;12.13;;;2.00;99.90;;;;;;4995045;28;20220;-78
2023/03/09 06:23:54;;;;;;;18.37;12.30;;;2.00;99.90;;;;;;4995014;28;20705;-78
2023/03/09 06:26:22;;;;;;;22.83;13.97;;;2.00;99.90;;;;;;4994676;28;20210;-78
2023/03/09 06:28:51;;;;;;;21.10;13.67;;;2.10;99.90;;;;;;4994969;28;20604;-78
2023/03/09 06:31:19;;;;;;;21.10;14.27;;;2.00;99.90;;;;;;4995083;28;20310;-77
2023/03/09 06:33:47;;;;;;;20.87;12.80;;;2.10;99.90;;;;;;4993907;28;20647;-78
2023/03/09 06:36:15;;;;;;;21.40;13.07;;;2.10;99.90;;;;;;4994824;28;20204;-78
2023/03/09 06:38:42;;;;;;;19.90;12.90;;;2.10;99.90;;;;;;4994224;28;20218;-78
2023/03/09 06:41:10;;;;;;;19.47;12.60;;;2.10;99.90;;;;;;4993142;28;20287;-78
2023/03/09 06:43:36;;;;;;;18.33;12.37;;;2.20;99.90;;;;;;4994330;28;20240;-77
2023/03/09 06:46:05;;;;;;;17.97;12.00;;;2.20;99.90;;;;;;4995139;28;20215;-78
2023/03/09 06:48:32;;;;;;;20.33;12.50;;;2.30;99.90;;;;;;4994143;28;20203;-78
2023/03/09 06:50:59;;;;;;;18.93;12.93;;;2.30;99.90;;;;;;4994404;28;20234;-77
2023/03/09 06:53:26;;;;;;;18.40;11.63;;;2.30;99.90;;;;;;4993524;28;20255;-77
2023/03/09 06:55:52;;;;;;;19.10;12.17;;;2.30;99.90;;;;;;4994281;28;20279;-78
2023/03/09 06:58:20;;;;;;;18.13;12.07;;;2.40;99.90;;;;;;4994099;28;20231;-78
2023/03/09 07:00:46;;;;;;;21.23;13.20;;;2.40;99.90;;;;;;4993657;28;20210;-78
2023/03/09 07:03:17;;;;;;;20.33;12.83;;;2.40;99.90;;;;;;4994164;28;20872;-77
2023/03/09 07:05:44;;;;;;;19.50;12.73;;;2.40;99.90;;;;;;4994142;28;20287;-78
2023/03/09 07:08:11;;;;;;;15.47;11.30;;;2.40;99.90;;;;;;4993254;28;20227;-79
2023/03/09 07:10:38;;;;;;;19.07;12.20;;;2.40;99.90;;;;;;4993854;28;20542;-78
2023/03/09 07:13:05;;;;;;;19.07;12.47;;;2.40;99.90;;;;;;4994193;28;20596;-77
2023/03/09 07:15:32;;;;;;;18.43;12.43;;;2.40;99.90;;;;;;4993053;28;20218;-78
2023/03/09 07:17:59;;;;;;;17.73;12.03;;;2.40;99.90;;;;;;4994123;28;20204;-79
2023/03/09 07:20:27;;;;;;;18.43;11.50;;;2.50;99.90;;;;;;5004465;28;20671;-78
2023/03/09 07:22:54;;;;;;;17.67;12.53;;;2.50;99.90;;;;;;5012801;28;20204;-79
2023/03/09 07:25:21;;;;;;;20.47;12.83;;;2.50;99.90;;;;;;5009640;28;20204;-77
2023/03/09 07:27:49;;;;;;;17.80;12.50;;;2.60;99.90;;;;;;5013289;28;20807;-78
2023/03/09 07:30:16;;;;;;;18.87;11.47;;;2.60;99.90;;;;;;5012517;28;20214;-78
2023/03/09 07:32:43;;;;;;;16.90;11.37;;;2.60;99.90;;;;;;4997442;28;20239;-78
2023/03/09 07:35:10;;;;;;;17.50;11.40;;;2.60;99.90;;;;;;4993834;28;20275;-78
2023/03/09 07:37:40;;;;;;;17.77;12.27;;;2.60;99.90;;;;;;5004403;28;20206;-78
2023/03/09 07:40:08;;;;;;;20.33;12.43;;;2.60;99.90;;;;;;5013649;28;20207;-78
2023/03/09 07:42:35;;;;;;;16.27;11.57;;;2.70;99.90;;;;;;4997002;28;20295;-78
2023/03/09 07:45:02;;;;;;;17.50;11.20;;;2.70;99.90;;;;;;4993044;28;20226;-80
2023/03/09 07:47:31;;;;;;;16.23;11.97;;;2.70;99.90;;;;;;4999349;28;20199;-79
2023/03/09 07:49:58;;;;;;;18.93;12.73;;;2.70;99.90;;;;;;5011801;28;20214;-80
2023/03/09 07:52:30;;;;;;;19.97;13.10;;;2.80;99.90;;;;;;5011823;28;20282;-80
2023/03/09 07:54:58;;;;;;;18.53;12.73;;;2.80;99.90;;;;;;4997882;28;20200;-78
2023/03/09 07:57:26;;;;;;;17.87;12.63;;;2.90;99.90;;;;;;4992666;28;20206;-78
2023/03/09 07:59:54;;;;;;;20.77;13.40;;;2.90;99.90;;;;;;4992862;28;20204;-79
2023/03/09 08:02:21;;;;;;;20.03;13.70;;;3.00;99.90;;;;;;4993308;28;20200;-79
2023/03/09 08:05:02;;;;;;;21.03;14.97;;;3.00;99.90;;;;;;4980430;28;20238;-79
2023/03/09 08:07:28;;;;;;;21.03;15.13;;;3.10;99.90;;;;;;5010805;28;20245;-79
2023/03/09 08:09:55;;;;;;;20.37;13.70;;;3.10;99.90;;;;;;5001983;28;20266;-79
2023/03/09 08:12:24;;;;;;;22.37;14.83;;;3.20;99.90;;;;;;4994402;28;20223;-78
2023/03/09 08:14:51;;;;;;;21.40;14.73;;;3.10;99.90;;;;;;5008135;28;20218;-79
2023/03/09 08:17:18;;;;;;;18.47;13.30;;;3.10;99.90;;;;;;5011191;28;20301;-79
2023/03/09 08:19:45;;;;;;;18.37;12.83;;;3.20;99.90;;;;;;5008894;28;20236;-79
2023/03/09 08:22:12;;;;;;;20.13;13.17;;;3.20;99.90;;;;;;5002432;28;20258;-79
2023/03/09 08:24:39;;;;;;;19.30;13.33;;;3.20;99.90;;;;;;5002494;28;20220;-79
2023/03/09 08:27:06;;;;;;;19.27;13.67;;;3.30;99.90;;;;;;4992839;28;20204;-80
2023/03/09 08:29:35;;;;;;;18.43;11.83;;;3.30;99.90;;;;;;4993069;28;20214;-79
2023/03/09 08:32:05;;;;;;;19.00;13.60;;;3.40;99.90;;;;;;4991608;28;20228;-78
2023/03/09 08:34:31;;;;;;;17.63;12.53;;;3.40;99.90;;;;;;4992803;28;20203;-79
2023/03/09 08:36:58;;;;;;;18.90;11.63;;;3.50;99.90;;;;;;4997511;28;20196;-77
2023/03/09 08:39:25;;;;;;;18.03;12.83;;;3.60;99.90;;;;;;5000615;28;20206;-79
2023/03/09 08:41:52;;;;;;;17.90;12.57;;;3.50;99.90;;;;;;5002334;28;20722;-78
2023/03/09 08:44:19;;;;;;;16.57;11.93;;;3.60;99.90;;;;;;5000042;28;20215;-79
2023/03/09 08:46:48;;;;;;;15.90;11.80;;;3.60;99.90;;;;;;4992004;28;20531;-78
2023/03/09 08:49:15;;;;;;;17.20;11.90;;;3.60;99.90;;;;;;4992054;28;20294;-79
2023/03/09 08:51:42;;;;;;;15.93;11.60;;;3.70;99.90;;;;;;4992308;28;20204;-78
2023/03/09 08:54:08;;;;;;;16.80;12.23;;;3.70;99.90;;;;;;4991607;28;20335;-79
2023/03/09 08:56:36;;;;;;;16.97;11.37;;;3.70;99.90;;;;;;4992224;28;20207;-79
2023/03/09 08:59:03;;;;;;;18.47;12.50;;;3.70;99.90;;;;;;4991075;28;20214;-79
2023/03/09 09:01:29;;;;;;;19.20;12.73;;;3.70;99.90;;;;;;4990606;28;20227;-79
2023/03/09 09:03:58;;;;;;;16.83;12.10;;;3.80;99.90;;;;;;4995753;28;20311;-80
2023/03/09 09:06:25;;;;;;;16.93;12.27;;;4.00;99.90;;;;;;4995779;28;20798;-79
2023/03/09 09:08:51;;;;;;;16.57;11.87;;;4.10;99.90;;;;;;4995305;28;20219;-80
2023/03/09 09:11:19;;;;;;;16.17;11.33;;;4.10;99.90;;;;;;4995414;28;20516;-79
2023/03/09 09:13:45;;;;;;;17.50;12.17;;;4.20;99.90;;;;;;4996800;28;20273;-79
2023/03/09 09:16:16;;;;;;;15.70;11.13;;;4.30;99.90;;;;;;4995910;28;20226;-80
2023/03/09 09:18:43;;;;;;;16.57;12.23;;;4.50;99.90;;;;;;4996274;28;20219;-80
2023/03/09 09:21:13;;;;;;;16.57;11.77;;;4.60;99.90;;;;;;4995630;28;20286;-79
2023/03/09 09:23:41;;;;;;;17.77;12.53;;;4.70;99.90;;;;;;4995963;28;20290;-80
2023/03/09 09:26:09;;;;;;;16.60;12.60;;;4.70;99.90;;;;;;4996511;28;20207;-80
2023/03/09 09:28:36;;;;;;;14.57;11.30;;;4.70;99.90;;;;;;4996125;28;20227;-79
2023/03/09 09:31:04;;;;;;;14.03;11.60;;;4.70;99.90;;;;;;4996120;28;20295;-77
2023/03/09 09:33:33;;;;;;;16.40;12.00;;;4.80;99.90;;;;;;5015431;28;20562;-79
2023/03/09 09:36:01;;;;;;;16.33;11.27;;;4.90;99.90;;;;;;5014718;28;20279;-78
2023/03/09 09:38:33;;;;;;;17.10;12.57;;;5.00;99.90;;;;;;5014705;28;20298;-78
2023/03/09 09:41:03;;;;;;;15.93;11.57;;;5.00;99.90;;;;;;4996040;28;20210;-79
2023/03/09 09:43:31;;;;;;;15.77;12.27;;;5.00;99.90;;;;;;4995701;28;20231;-79
2023/03/09 09:46:00;;;;;;;15.83;12.13;;;5.10;99.90;;;;;;4996028;28;20219;-79
2023/03/09 09:48:28;;;;;;;16.13;12.57;;;5.20;99.90;;;;;;4996274;28;20200;-80
2023/03/09 09:51:10;;;;;;;13.37;10.60;;;5.20;99.90;;;;;;4994649;28;20196;-78
2023/03/09 09:53:54;;;;;;;13.77;10.47;;;5.20;99.90;;;;;;4995539;28;20227;-78
2023/03/09 09:56:25;;;;;;;14.40;11.00;;;5.20;99.90;;;;;;4994911;28;20202;-79
2023/03/09 09:58:58;;;;;;;15.33;11.13;;;5.10;99.90;;;;;;4995432;28;20210;-77
2023/03/09 10:01:35;;;;;;;16.00;11.13;;;5.10;99.90;;;;;;4995567;28;20196;-79
2023/03/09 10:04:10;;;;;;;15.00;10.53;;;5.10;99.90;;;;;;4994503;28;20624;-79
2023/03/09 10:06:39;;;;;;;15.60;11.93;;;5.10;99.90;;;;;;4995425;28;20668;-79
2023/03/09 10:09:12;;;;;;;14.37;10.40;;;5.20;99.90;;;;;;4995280;28;20214;-80
2023/03/09 10:11:44;;;;;;;13.67;10.70;;;5.20;99.90;;;;;;4994029;28;20208;-79
2023/03/09 10:14:23;;;;;;;14.27;10.50;;;5.20;99.90;;;;;;4994635;28;20200;-79
2023/03/09 10:16:55;;;;;;;15.63;11.30;;;5.20;99.90;;;;;;4995186;28;20929;-78
2023/03/09 10:19:29;;;;;;;15.20;11.13;;;5.30;99.90;;;;;;4994413;28;20291;-79
2023/03/09 10:21:57;;;;;;;14.53;11.23;;;5.30;99.90;;;;;;4995240;28;20198;-79
2023/03/09 10:24:28;;;;;;;14.17;11.00;;;5.30;99.90;;;;;;4994302;28;20230;-79
2023/03/09 10:27:01;;;;;;;14.30;10.37;;;5.30;99.90;;;;;;4994832;28;20785;-79
2023/03/09 10:29:41;;;;;;;13.93;10.10;;;5.30;99.90;;;;;;4994930;28;20294;-78
2023/03/09 10:32:16;;;;;;;12.53;9.57;;;5.40;99.90;;;;;;4994609;28;20644;-80
2023/03/09 10:34:54;;;;;;;13.40;9.50;;;5.40;99.90;;;;;;4994586;28;20307;-79
2023/03/09 10:37:24;;;;;;;13.20;10.37;;;5.40;99.90;;;;;;4994724;28;20203;-79
2023/03/09 10:39:53;;;;;;;11.77;9.30;;;5.40;99.90;;;;;;4994544;28;20563;-78
2023/03/09 10:42:22;;;;;;;12.07;9.77;;;5.40;99.90;;;;;;5007036;28;20242;-79
2023/03/09 10:45:03;;;;;;;15.13;9.97;;;5.40;99.90;;;;;;5014137;28;20223;-79
2023/03/09 10:47:52;;;;;;;13.80;10.90;;;5.50;99.90;;;;;;4994099;28;20262;-79
2023/03/09 10:50:21;;;;;;;16.87;11.43;;;5.60;99.90;;;;;;4994675;28;20267;-79
2023/03/09 10:52:48;;;;;;;13.30;10.20;;;5.60;99.90;;;;;;4993783;28;20294;-79
2023/03/09 10:55:36;;;;;;;14.67;10.93;;;5.60;99.90;;;;;;4994671;28;20539;-79
2023/03/09 10:58:14;;;;;;;13.93;10.37;;;5.70;99.90;;;;;;4994830;28;20284;-79
2023/03/09 11:00:57;;;;;;;12.97;10.20;;;5.70;99.90;;;;;;4993830;28;20200;-79
2023/03/09 11:03:30;;;;;;;13.90;10.37;;;5.70;99.90;;;;;;4994625;28;20234;-78
2023/03/09 11:06:11;;;;;;;13.57;11.33;;;5.80;99.90;;;;;;4993865;28;20220;-79
2023/03/09 11:08:38;;;;;;;14.27;10.23;;;5.70;98.20;;;;;;4993720;28;20192;-80
2023/03/09 11:11:14;;;;;;;12.07;9.70;;;5.60;94.50;;;;;;4994188;28;20206;-79
2023/03/09 11:13:44;;;;;;;14.57;10.97;;;5.70;99.90;;;;;;4993491;28;20199;-79
2023/03/09 11:16:16;;;;;;;13.33;10.50;;;5.70;99.90;;;;;;4994653;28;20195;-79
2023/03/09 11:18:43;;;;;;;12.27;9.77;;;5.70;99.90;;;;;;4998698;28;20434;-79
2023/03/09 11:21:21;;;;;;;12.13;9.60;;;5.60;99.90;;;;;;5010588;28;20314;-78
2023/03/09 11:23:51;;;;;;;14.13;9.90;;;5.60;99.90;;;;;;5003832;28;20207;-80
2023/03/09 11:26:25;;;;;;;12.70;9.30;;;5.60;99.90;;;;;;5004919;28;20334;-79
2023/03/09 11:28:58;;;;;;;13.97;10.53;;;5.70;99.90;;;;;;5009568;28;20249;-80
2023/03/09 11:31:26;;;;;;;12.50;9.47;;;5.70;99.90;;;;;;5009691;28;20196;-80
2023/03/09 11:33:57;;;;;;;12.70;10.07;;;5.70;99.90;;;;;;5006815;28;20696;-80
2023/03/09 11:36:29;;;;;;;12.47;9.23;;;5.70;99.10;;;;;;5001048;28;20251;-79
2023/03/09 11:38:56;;;;;;;11.93;9.30;;;5.80;99.90;;;;;;5005251;28;20195;-78
2023/03/09 11:41:30;;;;;;;13.83;10.57;;;5.80;99.90;;;;;;5002682;28;20282;-79
2023/03/09 11:44:03;;;;;;;13.37;10.40;;;5.80;97.80;;;;;;5001714;28;20215;-78
2023/03/09 11:46:30;;;;;;;14.17;10.63;;;5.90;98.30;;;;;;5002354;28;20231;-77
2023/03/09 11:49:07;;;;;;;13.93;10.47;;;5.80;99.90;;;;;;5001789;28;20199;-77
2023/03/09 11:51:40;;;;;;;14.13;10.83;;;5.70;99.90;;;;;;5004201;28;20207;-77
2023/03/09 11:54:17;;;;;;;14.20;10.30;;;5.80;99.90;;;;;;5001096;28;20243;-79
2023/03/09 11:56:46;;;;;;;13.10;10.13;;;5.80;99.90;;;;;;4993164;28;20280;-80
2023/03/09 11:59:18;;;;;;;13.60;10.33;;;5.70;99.90;;;;;;4993673;28;20224;-77
2023/03/09 12:01:48;;;;;;;14.67;10.63;;;5.70;99.90;;;;;;4993067;28;20192;-80
2023/03/09 12:04:17;;;;;;;13.27;10.73;;;5.70;99.90;;;;;;4992713;28;20224;-79
2023/03/09 12:06:51;;;;;;;12.90;10.40;;;5.70;99.90;;;;;;4997844;28;20254;-79
2023/03/09 12:09:26;;;;;;;13.07;10.07;;;5.70;99.90;;;;;;5004914;28;20215;-80
2023/03/09 12:11:58;;;;;;;15.10;11.03;;;5.70;99.90;;;;;;5012301;28;20221;-81
2023/03/09 12:14:30;;;;;;;14.73;11.57;;;5.60;99.90;;;;;;5001587;28;20200;-80
2023/03/09 12:17:03;;;;;;;16.40;12.07;;;5.60;99.90;;;;;;4999561;28;20602;-82
2023/03/09 12:19:33;;;;;;;15.20;11.13;;;5.50;99.90;;;;;;5010143;28;20209;-83
2023/03/09 12:22:05;;;;;;;14.70;11.43;;;5.60;99.90;;;;;;5016077;28;20199;-82
2023/03/09 12:24:40;;;;;;;13.53;10.83;;;5.50;99.90;;;;;;4998092;28;20201;-82
2023/03/09 12:27:18;;;;;;;14.10;11.43;;;5.50;99.90;;;;;;5012877;28;20230;-78
2023/03/09 12:29:48;;;;;;;16.77;12.70;;;5.60;99.90;;;;;;4997181;28;20322;-80
2023/03/09 12:32:43;;;;;;;13.67;10.87;;;5.70;99.90;;;;;;4992153;28;20843;-83
2023/03/09 12:35:33;;;;;;;16.70;12.90;;;5.70;99.90;;;;;;5010321;28;20219;-88
2023/03/09 12:38:16;;;;;;;15.17;11.87;;;5.80;99.90;;;;;;5012436;28;20217;-87
2023/03/09 12:40:44;;;;;;;16.10;11.80;;;5.80;99.90;;;;;;5013995;28;20237;-87
2023/03/09 12:43:50;;;;;;;17.63;13.37;;;5.80;99.90;;;;;;4993627;28;20239;-84
2023/03/09 12:46:51;;;;;;;16.80;12.20;;;5.80;99.90;;;;;;5008994;28;20218;-85
2023/03/09 12:49:20;;;;;;;15.47;11.40;;;5.70;99.90;;;;;;5009024;28;20216;-85
2023/03/09 12:51:58;;;;;;;16.27;12.50;;;5.70;99.90;;;;;;5010184;28;20211;-83
2023/03/09 12:54:25;;;;;;;17.83;12.67;;;5.70;99.90;;;;;;4996327;28;20207;-82